sensor_id;sensor_type;location;lat;lon;timestamp;P1;durP1;ratioP1;P2;durP2;ratioP2
67554;SDS011;54385;53.516;49.456;2022-11-09T00:00:45;1.45;;;1.02;;
67554;SDS011;54385;53.516;49.456;2022-11-09T00:03:12;3.17;;;2.13;;
67554;SDS011;54385;53.516;49.456;2022-11-09T00:05:38;2.88;;;1.80;;
67554;SDS011;54385;53.516;49.456;2022-11-09T00:10:32;2.17;;;1.30;;
67554;SDS011;54385;53.516;49.456;2022-11-09T00:12:59;6.22;;;2.00;;
67554;SDS011;54385;53.516;49.456;2022-11-09T00:15:26;2.67;;;1.75;;
67554;SDS011;54385;53.516;49.456;2022-11-09T00:17:53;3.28;;;1.88;;
67554;SDS011;54385;53.516;49.456;2022-11-09T00:20:19;2.90;;;1.63;;
67554;SDS011;54385;53.516;49.456;2022-11-09T00:22:46;2.78;;;1.73;;
67554;SDS011;54385;53.516;49.456;2022-11-09T00:25:14;3.53;;;2.10;;
67554;SDS011;54385;53.516;49.456;2022-11-09T00:27:41;3.47;;;2.03;;
67554;SDS011;54385;53.516;49.456;2022-11-09T00:30:08;3.00;;;1.92;;
67554;SDS011;54385;53.516;49.456;2022-11-09T00:32:35;3.95;;;2.00;;
67554;SDS011;54385;53.516;49.456;2022-11-09T00:35:02;3.40;;;2.05;;
67554;SDS011;54385;53.516;49.456;2022-11-09T00:37:29;3.85;;;2.33;;
67554;SDS011;54385;53.516;49.456;2022-11-09T00:39:55;4.10;;;2.03;;
67554;SDS011;54385;53.516;49.456;2022-11-09T00:42:21;7.65;;;2.20;;
67554;SDS011;54385;53.516;49.456;2022-11-09T00:44:48;4.63;;;2.83;;
67554;SDS011;54385;53.516;49.456;2022-11-09T00:47:14;3.22;;;1.63;;
67554;SDS011;54385;53.516;49.456;2022-11-09T00:49:41;3.65;;;2.35;;
67554;SDS011;54385;53.516;49.456;2022-11-09T00:52:07;4.97;;;2.08;;
67554;SDS011;54385;53.516;49.456;2022-11-09T00:54:33;4.32;;;1.85;;
67554;SDS011;54385;53.516;49.456;2022-11-09T00:57:00;4.50;;;2.42;;
67554;SDS011;54385;53.516;49.456;2022-11-09T00:59:26;4.03;;;2.13;;
67554;SDS011;54385;53.516;49.456;2022-11-09T01:01:53;3.33;;;2.28;;
67554;SDS011;54385;53.516;49.456;2022-11-09T01:04:19;2.38;;;2.00;;
67554;SDS011;54385;53.516;49.456;2022-11-09T01:06:45;6.00;;;2.03;;
67554;SDS011;54385;53.516;49.456;2022-11-09T01:09:12;6.45;;;2.15;;
67554;SDS011;54385;53.516;49.456;2022-11-09T01:11:38;3.83;;;2.05;;
67554;SDS011;54385;53.516;49.456;2022-11-09T01:14:04;3.50;;;2.38;;
67554;SDS011;54385;53.516;49.456;2022-11-09T01:16:31;8.35;;;2.35;;
67554;SDS011;54385;53.516;49.456;2022-11-09T01:18:57;2.28;;;1.65;;
67554;SDS011;54385;53.516;49.456;2022-11-09T01:21:24;4.93;;;2.28;;
67554;SDS011;54385;53.516;49.456;2022-11-09T01:23:52;4.28;;;2.33;;
67554;SDS011;54385;53.516;49.456;2022-11-09T01:26:18;9.32;;;2.53;;
67554;SDS011;54385;53.516;49.456;2022-11-09T01:28:44;4.55;;;2.83;;
67554;SDS011;54385;53.516;49.456;2022-11-09T01:31:12;3.20;;;2.20;;
67554;SDS011;54385;53.516;49.456;2022-11-09T01:33:41;4.00;;;2.65;;
67554;SDS011;54385;53.516;49.456;2022-11-09T01:36:13;4.32;;;2.40;;
67554;SDS011;54385;53.516;49.456;2022-11-09T01:41:10;3.55;;;2.70;;
67554;SDS011;54385;53.516;49.456;2022-11-09T01:43:39;3.65;;;2.28;;
67554;SDS011;54385;53.516;49.456;2022-11-09T01:46:19;5.45;;;2.30;;
67554;SDS011;54385;53.516;49.456;2022-11-09T01:48:50;5.63;;;2.30;;
67554;SDS011;54385;53.516;49.456;2022-11-09T01:51:35;4.07;;;2.55;;
67554;SDS011;54385;53.516;49.456;2022-11-09T01:54:14;4.47;;;2.70;;
67554;SDS011;54385;53.516;49.456;2022-11-09T01:56:44;5.47;;;2.53;;
67554;SDS011;54385;53.516;49.456;2022-11-09T01:59:16;6.93;;;2.63;;
67554;SDS011;54385;53.516;49.456;2022-11-09T02:01:46;3.80;;;2.17;;
67554;SDS011;54385;53.516;49.456;2022-11-09T02:04:17;4.53;;;2.60;;
67554;SDS011;54385;53.516;49.456;2022-11-09T02:06:47;2.33;;;1.35;;
67554;SDS011;54385;53.516;49.456;2022-11-09T02:09:25;5.28;;;2.47;;
67554;SDS011;54385;53.516;49.456;2022-11-09T02:11:56;3.75;;;2.20;;
67554;SDS011;54385;53.516;49.456;2022-11-09T02:14:23;4.22;;;2.65;;
67554;SDS011;54385;53.516;49.456;2022-11-09T02:16:51;3.75;;;2.35;;
67554;SDS011;54385;53.516;49.456;2022-11-09T02:19:17;4.85;;;2.38;;
67554;SDS011;54385;53.516;49.456;2022-11-09T02:21:44;4.78;;;2.92;;
67554;SDS011;54385;53.516;49.456;2022-11-09T02:27:10;4.50;;;2.42;;
67554;SDS011;54385;53.516;49.456;2022-11-09T02:29:34;5.03;;;2.40;;
67554;SDS011;54385;53.516;49.456;2022-11-09T02:32:07;8.10;;;2.35;;
67554;SDS011;54385;53.516;49.456;2022-11-09T02:34:38;4.32;;;2.58;;
67554;SDS011;54385;53.516;49.456;2022-11-09T02:39:32;3.78;;;2.47;;
67554;SDS011;54385;53.516;49.456;2022-11-09T02:42:04;4.90;;;2.17;;
67554;SDS011;54385;53.516;49.456;2022-11-09T02:44:36;5.63;;;2.53;;
67554;SDS011;54385;53.516;49.456;2022-11-09T02:47:06;3.72;;;2.35;;
67554;SDS011;54385;53.516;49.456;2022-11-09T02:49:32;3.53;;;2.35;;
67554;SDS011;54385;53.516;49.456;2022-11-09T02:51:59;3.70;;;2.40;;
67554;SDS011;54385;53.516;49.456;2022-11-09T02:54:25;3.25;;;2.13;;
67554;SDS011;54385;53.516;49.456;2022-11-09T02:56:52;4.20;;;2.70;;
67554;SDS011;54385;53.516;49.456;2022-11-09T02:59:18;3.30;;;2.20;;
67554;SDS011;54385;53.516;49.456;2022-11-09T03:01:44;4.32;;;2.75;;
67554;SDS011;54385;53.516;49.456;2022-11-09T03:04:11;4.63;;;2.60;;
67554;SDS011;54385;53.516;49.456;2022-11-09T03:06:37;4.22;;;2.60;;
67554;SDS011;54385;53.516;49.456;2022-11-09T03:09:05;6.25;;;2.85;;
67554;SDS011;54385;53.516;49.456;2022-11-09T03:11:34;4.35;;;2.58;;
67554;SDS011;54385;53.516;49.456;2022-11-09T03:14:01;4.78;;;3.10;;
67554;SDS011;54385;53.516;49.456;2022-11-09T03:16:28;4.20;;;2.83;;
67554;SDS011;54385;53.516;49.456;2022-11-09T03:21:23;5.75;;;2.90;;
67554;SDS011;54385;53.516;49.456;2022-11-09T03:23:49;4.45;;;2.60;;
67554;SDS011;54385;53.516;49.456;2022-11-09T03:28:42;4.10;;;2.15;;
67554;SDS011;54385;53.516;49.456;2022-11-09T03:31:09;4.60;;;2.47;;
67554;SDS011;54385;53.516;49.456;2022-11-09T03:33:35;4.13;;;2.85;;
67554;SDS011;54385;53.516;49.456;2022-11-09T03:38:28;3.70;;;2.20;;
67554;SDS011;54385;53.516;49.456;2022-11-09T03:40:55;4.85;;;3.00;;
67554;SDS011;54385;53.516;49.456;2022-11-09T03:43:23;4.07;;;2.78;;
67554;SDS011;54385;53.516;49.456;2022-11-09T03:45:49;3.60;;;2.10;;
67554;SDS011;54385;53.516;49.456;2022-11-09T03:48:16;4.00;;;2.30;;
67554;SDS011;54385;53.516;49.456;2022-11-09T03:50:46;3.53;;;2.65;;
67554;SDS011;54385;53.516;49.456;2022-11-09T03:53:12;4.90;;;2.50;;
67554;SDS011;54385;53.516;49.456;2022-11-09T03:55:39;3.40;;;2.08;;
67554;SDS011;54385;53.516;49.456;2022-11-09T03:58:06;5.18;;;2.58;;
67554;SDS011;54385;53.516;49.456;2022-11-09T04:00:34;4.05;;;2.45;;
67554;SDS011;54385;53.516;49.456;2022-11-09T04:03:02;3.40;;;2.20;;
67554;SDS011;54385;53.516;49.456;2022-11-09T04:05:28;3.83;;;2.42;;
67554;SDS011;54385;53.516;49.456;2022-11-09T04:07:55;5.65;;;2.88;;
67554;SDS011;54385;53.516;49.456;2022-11-09T04:10:23;5.25;;;3.17;;
67554;SDS011;54385;53.516;49.456;2022-11-09T04:12:50;6.15;;;2.78;;
67554;SDS011;54385;53.516;49.456;2022-11-09T04:15:17;3.78;;;2.22;;
67554;SDS011;54385;53.516;49.456;2022-11-09T04:17:44;5.40;;;3.20;;
67554;SDS011;54385;53.516;49.456;2022-11-09T04:20:18;3.75;;;2.58;;
67554;SDS011;54385;53.516;49.456;2022-11-09T04:22:45;4.30;;;2.40;;
67554;SDS011;54385;53.516;49.456;2022-11-09T04:25:22;7.03;;;3.92;;
67554;SDS011;54385;53.516;49.456;2022-11-09T04:27:56;4.03;;;2.67;;
67554;SDS011;54385;53.516;49.456;2022-11-09T04:30:24;6.32;;;2.63;;
67554;SDS011;54385;53.516;49.456;2022-11-09T04:32:55;5.93;;;3.10;;
67554;SDS011;54385;53.516;49.456;2022-11-09T04:35:22;5.40;;;2.95;;
67554;SDS011;54385;53.516;49.456;2022-11-09T04:37:56;4.22;;;2.95;;
67554;SDS011;54385;53.516;49.456;2022-11-09T04:40:25;2.90;;;1.67;;
67554;SDS011;54385;53.516;49.456;2022-11-09T04:42:52;4.30;;;2.20;;
67554;SDS011;54385;53.516;49.456;2022-11-09T04:45:19;5.85;;;2.90;;
67554;SDS011;54385;53.516;49.456;2022-11-09T04:47:47;4.07;;;2.38;;
67554;SDS011;54385;53.516;49.456;2022-11-09T04:50:13;5.10;;;2.47;;
67554;SDS011;54385;53.516;49.456;2022-11-09T04:52:40;5.68;;;2.80;;
67554;SDS011;54385;53.516;49.456;2022-11-09T04:55:07;6.30;;;2.75;;
67554;SDS011;54385;53.516;49.456;2022-11-09T04:57:33;4.75;;;2.65;;
67554;SDS011;54385;53.516;49.456;2022-11-09T05:00:00;4.65;;;2.08;;
67554;SDS011;54385;53.516;49.456;2022-11-09T05:02:26;4.28;;;1.95;;
67554;SDS011;54385;53.516;49.456;2022-11-09T05:04:53;5.00;;;2.35;;
67554;SDS011;54385;53.516;49.456;2022-11-09T05:07:19;5.93;;;3.35;;
67554;SDS011;54385;53.516;49.456;2022-11-09T05:09:46;4.43;;;2.97;;
67554;SDS011;54385;53.516;49.456;2022-11-09T05:12:12;7.13;;;3.10;;
67554;SDS011;54385;53.516;49.456;2022-11-09T05:14:38;6.32;;;2.75;;
67554;SDS011;54385;53.516;49.456;2022-11-09T05:17:05;5.88;;;3.00;;
67554;SDS011;54385;53.516;49.456;2022-11-09T05:19:33;6.65;;;3.38;;
67554;SDS011;54385;53.516;49.456;2022-11-09T05:24:46;5.50;;;2.90;;
67554;SDS011;54385;53.516;49.456;2022-11-09T05:27:12;3.63;;;2.25;;
67554;SDS011;54385;53.516;49.456;2022-11-09T05:29:38;5.28;;;2.60;;
67554;SDS011;54385;53.516;49.456;2022-11-09T05:32:07;7.32;;;3.42;;
67554;SDS011;54385;53.516;49.456;2022-11-09T05:34:34;5.82;;;2.90;;
67554;SDS011;54385;53.516;49.456;2022-11-09T05:37:00;4.93;;;2.97;;
67554;SDS011;54385;53.516;49.456;2022-11-09T05:39:27;8.70;;;2.80;;
67554;SDS011;54385;53.516;49.456;2022-11-09T05:41:53;6.65;;;3.65;;
67554;SDS011;54385;53.516;49.456;2022-11-09T05:44:19;5.57;;;2.85;;
67554;SDS011;54385;53.516;49.456;2022-11-09T05:46:46;3.00;;;2.33;;
67554;SDS011;54385;53.516;49.456;2022-11-09T05:49:12;10.52;;;5.15;;
67554;SDS011;54385;53.516;49.456;2022-11-09T05:51:40;4.28;;;2.28;;
67554;SDS011;54385;53.516;49.456;2022-11-09T05:54:07;8.85;;;3.38;;
67554;SDS011;54385;53.516;49.456;2022-11-09T05:56:34;5.45;;;2.42;;
67554;SDS011;54385;53.516;49.456;2022-11-09T05:59:00;8.48;;;3.30;;
67554;SDS011;54385;53.516;49.456;2022-11-09T06:03:53;9.13;;;3.13;;
67554;SDS011;54385;53.516;49.456;2022-11-09T06:08:46;2.78;;;1.98;;
67554;SDS011;54385;53.516;49.456;2022-11-09T06:11:12;6.57;;;3.55;;
67554;SDS011;54385;53.516;49.456;2022-11-09T06:13:39;5.38;;;3.15;;
67554;SDS011;54385;53.516;49.456;2022-11-09T06:16:05;4.50;;;2.92;;
67554;SDS011;54385;53.516;49.456;2022-11-09T06:18:34;6.53;;;2.95;;
67554;SDS011;54385;53.516;49.456;2022-11-09T06:21:02;7.38;;;3.20;;
67554;SDS011;54385;53.516;49.456;2022-11-09T06:23:32;5.97;;;3.20;;
67554;SDS011;54385;53.516;49.456;2022-11-09T06:25:59;7.68;;;3.72;;
67554;SDS011;54385;53.516;49.456;2022-11-09T06:28:28;5.32;;;3.08;;
67554;SDS011;54385;53.516;49.456;2022-11-09T06:30:58;6.65;;;3.28;;
67554;SDS011;54385;53.516;49.456;2022-11-09T06:33:26;3.80;;;2.70;;
67554;SDS011;54385;53.516;49.456;2022-11-09T06:35:55;7.53;;;2.80;;
67554;SDS011;54385;53.516;49.456;2022-11-09T06:38:22;3.22;;;2.17;;
67554;SDS011;54385;53.516;49.456;2022-11-09T06:40:56;6.22;;;2.95;;
67554;SDS011;54385;53.516;49.456;2022-11-09T06:43:24;5.32;;;2.60;;
67554;SDS011;54385;53.516;49.456;2022-11-09T06:45:51;7.47;;;3.30;;
67554;SDS011;54385;53.516;49.456;2022-11-09T06:48:23;4.28;;;2.38;;
67554;SDS011;54385;53.516;49.456;2022-11-09T06:50:49;7.88;;;4.10;;
67554;SDS011;54385;53.516;49.456;2022-11-09T06:53:16;16.42;;;3.88;;
67554;SDS011;54385;53.516;49.456;2022-11-09T06:55:43;9.35;;;3.72;;
67554;SDS011;54385;53.516;49.456;2022-11-09T06:58:10;9.38;;;2.83;;
67554;SDS011;54385;53.516;49.456;2022-11-09T07:00:41;4.82;;;1.85;;
67554;SDS011;54385;53.516;49.456;2022-11-09T07:03:12;5.55;;;2.83;;
67554;SDS011;54385;53.516;49.456;2022-11-09T07:05:40;10.93;;;2.88;;
67554;SDS011;54385;53.516;49.456;2022-11-09T07:08:07;4.80;;;2.78;;
67554;SDS011;54385;53.516;49.456;2022-11-09T07:10:34;5.35;;;3.10;;
67554;SDS011;54385;53.516;49.456;2022-11-09T07:13:01;11.18;;;4.03;;
67554;SDS011;54385;53.516;49.456;2022-11-09T07:15:28;6.40;;;3.20;;
67554;SDS011;54385;53.516;49.456;2022-11-09T07:17:55;11.45;;;3.30;;
67554;SDS011;54385;53.516;49.456;2022-11-09T07:20:23;7.32;;;3.03;;
67554;SDS011;54385;53.516;49.456;2022-11-09T07:22:50;4.88;;;3.03;;
67554;SDS011;54385;53.516;49.456;2022-11-09T07:27:44;12.95;;;3.47;;
67554;SDS011;54385;53.516;49.456;2022-11-09T07:30:10;7.85;;;4.88;;
67554;SDS011;54385;53.516;49.456;2022-11-09T07:32:38;10.40;;;4.07;;
67554;SDS011;54385;53.516;49.456;2022-11-09T07:35:07;13.20;;;5.00;;
67554;SDS011;54385;53.516;49.456;2022-11-09T07:37:34;6.60;;;3.80;;
67554;SDS011;54385;53.516;49.456;2022-11-09T07:40:02;12.30;;;3.85;;
67554;SDS011;54385;53.516;49.456;2022-11-09T07:42:28;7.30;;;4.80;;
67554;SDS011;54385;53.516;49.456;2022-11-09T07:44:56;6.47;;;3.88;;
67554;SDS011;54385;53.516;49.456;2022-11-09T07:47:22;6.32;;;3.63;;
67554;SDS011;54385;53.516;49.456;2022-11-09T07:49:48;5.65;;;3.47;;
67554;SDS011;54385;53.516;49.456;2022-11-09T07:52:16;4.75;;;3.22;;
67554;SDS011;54385;53.516;49.456;2022-11-09T07:54:43;6.90;;;3.97;;
67554;SDS011;54385;53.516;49.456;2022-11-09T07:57:09;6.00;;;4.55;;
67554;SDS011;54385;53.516;49.456;2022-11-09T07:59:36;7.28;;;3.58;;
67554;SDS011;54385;53.516;49.456;2022-11-09T08:04:31;6.80;;;3.90;;
67554;SDS011;54385;53.516;49.456;2022-11-09T08:06:59;6.85;;;3.60;;
67554;SDS011;54385;53.516;49.456;2022-11-09T08:09:26;6.68;;;3.88;;
67554;SDS011;54385;53.516;49.456;2022-11-09T08:11:53;5.15;;;2.70;;
67554;SDS011;54385;53.516;49.456;2022-11-09T08:14:19;6.18;;;3.33;;
67554;SDS011;54385;53.516;49.456;2022-11-09T08:16:46;7.63;;;3.55;;
67554;SDS011;54385;53.516;49.456;2022-11-09T08:19:12;9.95;;;4.50;;
67554;SDS011;54385;53.516;49.456;2022-11-09T08:21:39;6.05;;;3.83;;
67554;SDS011;54385;53.516;49.456;2022-11-09T08:24:08;6.03;;;3.20;;
67554;SDS011;54385;53.516;49.456;2022-11-09T08:26:35;6.97;;;4.00;;
67554;SDS011;54385;53.516;49.456;2022-11-09T08:29:01;6.78;;;3.83;;
67554;SDS011;54385;53.516;49.456;2022-11-09T08:31:28;6.65;;;3.97;;
67554;SDS011;54385;53.516;49.456;2022-11-09T08:33:55;6.45;;;3.75;;
67554;SDS011;54385;53.516;49.456;2022-11-09T08:36:21;7.35;;;3.75;;
67554;SDS011;54385;53.516;49.456;2022-11-09T08:38:50;7.75;;;4.18;;
67554;SDS011;54385;53.516;49.456;2022-11-09T08:41:17;9.13;;;4.30;;
67554;SDS011;54385;53.516;49.456;2022-11-09T08:43:46;7.18;;;3.33;;
67554;SDS011;54385;53.516;49.456;2022-11-09T08:46:12;6.72;;;3.75;;
67554;SDS011;54385;53.516;49.456;2022-11-09T08:51:05;6.65;;;3.58;;
67554;SDS011;54385;53.516;49.456;2022-11-09T08:53:32;8.13;;;3.60;;
67554;SDS011;54385;53.516;49.456;2022-11-09T08:55:58;12.65;;;4.40;;
67554;SDS011;54385;53.516;49.456;2022-11-09T08:58:25;6.93;;;3.53;;
67554;SDS011;54385;53.516;49.456;2022-11-09T09:00:51;6.70;;;4.07;;
67554;SDS011;54385;53.516;49.456;2022-11-09T09:03:17;7.47;;;4.22;;
67554;SDS011;54385;53.516;49.456;2022-11-09T09:05:44;8.35;;;4.22;;
67554;SDS011;54385;53.516;49.456;2022-11-09T09:08:10;9.25;;;4.90;;
67554;SDS011;54385;53.516;49.456;2022-11-09T09:10:40;6.13;;;3.42;;
67554;SDS011;54385;53.516;49.456;2022-11-09T09:13:07;8.25;;;4.55;;
67554;SDS011;54385;53.516;49.456;2022-11-09T09:15:33;7.47;;;3.90;;
67554;SDS011;54385;53.516;49.456;2022-11-09T09:20:27;8.88;;;4.90;;
67554;SDS011;54385;53.516;49.456;2022-11-09T09:22:56;6.57;;;4.18;;
67554;SDS011;54385;53.516;49.456;2022-11-09T09:25:23;8.20;;;4.60;;
67554;SDS011;54385;53.516;49.456;2022-11-09T09:27:50;7.25;;;4.50;;
67554;SDS011;54385;53.516;49.456;2022-11-09T09:30:17;5.60;;;3.45;;
67554;SDS011;54385;53.516;49.456;2022-11-09T09:32:43;7.30;;;3.60;;
67554;SDS011;54385;53.516;49.456;2022-11-09T09:35:10;7.63;;;4.35;;
67554;SDS011;54385;53.516;49.456;2022-11-09T09:37:43;5.70;;;3.22;;
67554;SDS011;54385;53.516;49.456;2022-11-09T09:40:19;5.57;;;3.30;;
67554;SDS011;54385;53.516;49.456;2022-11-09T09:42:53;6.63;;;3.55;;
67554;SDS011;54385;53.516;49.456;2022-11-09T09:45:22;5.35;;;3.35;;
67554;SDS011;54385;53.516;49.456;2022-11-09T09:51:17;7.00;;;4.28;;
67554;SDS011;54385;53.516;49.456;2022-11-09T09:54:16;5.20;;;3.05;;
67554;SDS011;54385;53.516;49.456;2022-11-09T09:56:46;6.85;;;3.70;;
67554;SDS011;54385;53.516;49.456;2022-11-09T10:05:06;5.60;;;3.05;;
67554;SDS011;54385;53.516;49.456;2022-11-09T10:10:51;5.50;;;3.40;;
67554;SDS011;54385;53.516;49.456;2022-11-09T10:13:34;5.07;;;3.08;;
67554;SDS011;54385;53.516;49.456;2022-11-09T10:19:21;5.90;;;3.78;;
67554;SDS011;54385;53.516;49.456;2022-11-09T10:22:02;4.63;;;3.20;;
67554;SDS011;54385;53.516;49.456;2022-11-09T10:24:53;5.97;;;3.85;;
67554;SDS011;54385;53.516;49.456;2022-11-09T10:27:26;7.35;;;4.00;;
67554;SDS011;54385;53.516;49.456;2022-11-09T10:30:01;6.25;;;3.17;;
67554;SDS011;54385;53.516;49.456;2022-11-09T10:32:39;5.82;;;3.40;;
67554;SDS011;54385;53.516;49.456;2022-11-09T10:38:28;5.50;;;3.00;;
67554;SDS011;54385;53.516;49.456;2022-11-09T10:41:05;7.30;;;3.55;;
67554;SDS011;54385;53.516;49.456;2022-11-09T10:43:56;6.75;;;4.32;;
67554;SDS011;54385;53.516;49.456;2022-11-09T10:46:23;5.95;;;3.75;;
67554;SDS011;54385;53.516;49.456;2022-11-09T10:48:50;6.88;;;3.67;;
67554;SDS011;54385;53.516;49.456;2022-11-09T10:51:32;8.82;;;4.15;;
67554;SDS011;54385;53.516;49.456;2022-11-09T10:54:13;10.05;;;4.95;;
67554;SDS011;54385;53.516;49.456;2022-11-09T10:56:44;11.55;;;5.55;;
67554;SDS011;54385;53.516;49.456;2022-11-09T11:01:52;5.50;;;3.53;;
67554;SDS011;54385;53.516;49.456;2022-11-09T11:04:20;3.47;;;2.30;;
67554;SDS011;54385;53.516;49.456;2022-11-09T11:06:49;8.05;;;3.88;;
67554;SDS011;54385;53.516;49.456;2022-11-09T11:09:17;7.85;;;4.07;;
67554;SDS011;54385;53.516;49.456;2022-11-09T11:11:45;8.68;;;3.70;;
67554;SDS011;54385;53.516;49.456;2022-11-09T11:16:51;6.75;;;3.72;;
67554;SDS011;54385;53.516;49.456;2022-11-09T11:19:25;7.07;;;3.70;;
67554;SDS011;54385;53.516;49.456;2022-11-09T11:32:43;7.15;;;3.70;;
67554;SDS011;54385;53.516;49.456;2022-11-09T11:35:11;7.72;;;3.97;;
67554;SDS011;54385;53.516;49.456;2022-11-09T11:40:27;7.80;;;4.50;;
67554;SDS011;54385;53.516;49.456;2022-11-09T11:45:42;6.82;;;3.95;;
67554;SDS011;54385;53.516;49.456;2022-11-09T11:50:53;6.82;;;4.38;;
67554;SDS011;54385;53.516;49.456;2022-11-09T11:58:51;7.38;;;3.70;;
67554;SDS011;54385;53.516;49.456;2022-11-09T12:07:23;8.43;;;4.57;;
67554;SDS011;54385;53.516;49.456;2022-11-09T12:15:39;10.82;;;4.78;;
67554;SDS011;54385;53.516;49.456;2022-11-09T12:18:31;8.75;;;4.40;;
67554;SDS011;54385;53.516;49.456;2022-11-09T12:21:14;7.15;;;4.63;;
67554;SDS011;54385;53.516;49.456;2022-11-09T12:29:36;9.35;;;4.93;;
67554;SDS011;54385;53.516;49.456;2022-11-09T12:32:16;8.90;;;4.95;;
67554;SDS011;54385;53.516;49.456;2022-11-09T12:35:21;8.68;;;4.68;;
67554;SDS011;54385;53.516;49.456;2022-11-09T12:38:42;8.38;;;4.88;;
67554;SDS011;54385;53.516;49.456;2022-11-09T12:41:03;8.93;;;4.50;;
67554;SDS011;54385;53.516;49.456;2022-11-09T12:46:29;7.18;;;3.67;;
67554;SDS011;54385;53.516;49.456;2022-11-09T12:49:00;9.35;;;4.35;;
67554;SDS011;54385;53.516;49.456;2022-11-09T12:51:29;9.40;;;4.97;;
67554;SDS011;54385;53.516;49.456;2022-11-09T12:53:57;9.90;;;4.53;;
67554;SDS011;54385;53.516;49.456;2022-11-09T12:56:31;7.85;;;4.47;;
67554;SDS011;54385;53.516;49.456;2022-11-09T12:59:43;9.95;;;5.00;;
67554;SDS011;54385;53.516;49.456;2022-11-09T13:02:20;9.85;;;4.53;;
67554;SDS011;54385;53.516;49.456;2022-11-09T13:05:05;9.65;;;4.78;;
67554;SDS011;54385;53.516;49.456;2022-11-09T13:07:52;8.18;;;4.75;;
67554;SDS011;54385;53.516;49.456;2022-11-09T13:10:30;8.18;;;4.45;;
67554;SDS011;54385;53.516;49.456;2022-11-09T13:15:30;12.55;;;5.63;;
67554;SDS011;54385;53.516;49.456;2022-11-09T13:18:00;10.82;;;5.35;;
67554;SDS011;54385;53.516;49.456;2022-11-09T13:23:03;12.68;;;4.25;;
67554;SDS011;54385;53.516;49.456;2022-11-09T13:25:49;10.80;;;5.88;;
67554;SDS011;54385;53.516;49.456;2022-11-09T13:29:05;7.03;;;4.45;;
67554;SDS011;54385;53.516;49.456;2022-11-09T13:34:49;8.50;;;4.90;;
67554;SDS011;54385;53.516;49.456;2022-11-09T13:43:02;11.38;;;4.90;;
67554;SDS011;54385;53.516;49.456;2022-11-09T13:48:32;6.65;;;3.90;;
67554;SDS011;54385;53.516;49.456;2022-11-09T13:51:16;6.75;;;3.78;;
67554;SDS011;54385;53.516;49.456;2022-11-09T13:53:53;5.70;;;3.38;;
67554;SDS011;54385;53.516;49.456;2022-11-09T14:02:20;7.93;;;3.90;;
67554;SDS011;54385;53.516;49.456;2022-11-09T14:04:48;12.93;;;4.70;;
67554;SDS011;54385;53.516;49.456;2022-11-09T14:15:52;7.03;;;3.65;;
67554;SDS011;54385;53.516;49.456;2022-11-09T14:21:37;10.38;;;4.57;;
67554;SDS011;54385;53.516;49.456;2022-11-09T14:24:13;4.82;;;3.05;;
67554;SDS011;54385;53.516;49.456;2022-11-09T14:29:24;11.05;;;5.00;;
67554;SDS011;54385;53.516;49.456;2022-11-09T14:31:50;9.45;;;4.43;;
67554;SDS011;54385;53.516;49.456;2022-11-09T14:34:17;6.65;;;3.33;;
67554;SDS011;54385;53.516;49.456;2022-11-09T14:36:45;9.02;;;4.72;;
67554;SDS011;54385;53.516;49.456;2022-11-09T14:39:29;10.20;;;4.47;;
67554;SDS011;54385;53.516;49.456;2022-11-09T14:41:59;5.90;;;3.30;;
67554;SDS011;54385;53.516;49.456;2022-11-09T14:44:30;7.93;;;4.05;;
67554;SDS011;54385;53.516;49.456;2022-11-09T14:47:05;6.70;;;3.85;;
67554;SDS011;54385;53.516;49.456;2022-11-09T14:49:40;7.18;;;3.40;;
67554;SDS011;54385;53.516;49.456;2022-11-09T14:52:08;6.88;;;4.00;;
67554;SDS011;54385;53.516;49.456;2022-11-09T14:54:39;8.63;;;4.50;;
67554;SDS011;54385;53.516;49.456;2022-11-09T14:57:05;8.60;;;4.25;;
67554;SDS011;54385;53.516;49.456;2022-11-09T14:59:35;9.07;;;4.03;;
67554;SDS011;54385;53.516;49.456;2022-11-09T15:02:03;8.52;;;4.38;;
67554;SDS011;54385;53.516;49.456;2022-11-09T15:07:31;7.40;;;3.92;;
67554;SDS011;54385;53.516;49.456;2022-11-09T15:10:06;7.43;;;2.45;;
67554;SDS011;54385;53.516;49.456;2022-11-09T15:12:49;9.40;;;4.60;;
67554;SDS011;54385;53.516;49.456;2022-11-09T15:15:19;9.10;;;4.57;;
67554;SDS011;54385;53.516;49.456;2022-11-09T15:17:49;8.00;;;4.40;;
67554;SDS011;54385;53.516;49.456;2022-11-09T15:30:40;7.20;;;3.83;;
67554;SDS011;54385;53.516;49.456;2022-11-09T15:36:51;6.75;;;4.10;;
67554;SDS011;54385;53.516;49.456;2022-11-09T15:38:56;7.18;;;3.78;;
67554;SDS011;54385;53.516;49.456;2022-11-09T15:41:26;8.00;;;4.15;;
67554;SDS011;54385;53.516;49.456;2022-11-09T15:43:53;8.85;;;4.32;;
67554;SDS011;54385;53.516;49.456;2022-11-09T15:49:05;7.88;;;4.53;;
67554;SDS011;54385;53.516;49.456;2022-11-09T15:51:41;11.95;;;5.13;;
67554;SDS011;54385;53.516;49.456;2022-11-09T15:54:08;9.18;;;4.32;;
67554;SDS011;54385;53.516;49.456;2022-11-09T15:56:34;8.05;;;4.22;;
67554;SDS011;54385;53.516;49.456;2022-11-09T15:59:01;8.70;;;4.70;;
67554;SDS011;54385;53.516;49.456;2022-11-09T16:01:28;9.48;;;4.90;;
67554;SDS011;54385;53.516;49.456;2022-11-09T16:03:58;12.10;;;5.00;;
67554;SDS011;54385;53.516;49.456;2022-11-09T16:06:24;8.73;;;4.10;;
67554;SDS011;54385;53.516;49.456;2022-11-09T16:08:51;12.93;;;6.45;;
67554;SDS011;54385;53.516;49.456;2022-11-09T16:11:18;10.63;;;5.65;;
67554;SDS011;54385;53.516;49.456;2022-11-09T16:13:44;10.20;;;5.45;;
67554;SDS011;54385;53.516;49.456;2022-11-09T16:16:11;9.13;;;5.05;;
67554;SDS011;54385;53.516;49.456;2022-11-09T16:18:39;8.77;;;4.97;;
67554;SDS011;54385;53.516;49.456;2022-11-09T16:21:12;6.93;;;3.92;;
67554;SDS011;54385;53.516;49.456;2022-11-09T16:23:40;6.90;;;3.60;;
67554;SDS011;54385;53.516;49.456;2022-11-09T16:26:11;7.20;;;4.53;;
67554;SDS011;54385;53.516;49.456;2022-11-09T16:28:39;9.10;;;4.95;;
67554;SDS011;54385;53.516;49.456;2022-11-09T16:31:05;7.75;;;4.75;;
67554;SDS011;54385;53.516;49.456;2022-11-09T16:33:32;11.15;;;5.13;;
67554;SDS011;54385;53.516;49.456;2022-11-09T16:36:00;7.80;;;4.53;;
67554;SDS011;54385;53.516;49.456;2022-11-09T16:38:30;9.10;;;4.53;;
67554;SDS011;54385;53.516;49.456;2022-11-09T16:41:01;10.73;;;4.85;;
67554;SDS011;54385;53.516;49.456;2022-11-09T16:43:29;10.48;;;4.55;;
67554;SDS011;54385;53.516;49.456;2022-11-09T16:45:57;8.45;;;4.93;;
67554;SDS011;54385;53.516;49.456;2022-11-09T16:48:24;9.52;;;4.90;;
67554;SDS011;54385;53.516;49.456;2022-11-09T16:50:50;5.97;;;3.95;;
67554;SDS011;54385;53.516;49.456;2022-11-09T16:53:18;6.28;;;4.18;;
67554;SDS011;54385;53.516;49.456;2022-11-09T16:55:45;10.27;;;5.00;;
67554;SDS011;54385;53.516;49.456;2022-11-09T16:58:12;7.13;;;3.17;;
67554;SDS011;54385;53.516;49.456;2022-11-09T17:00:45;6.70;;;4.07;;
67554;SDS011;54385;53.516;49.456;2022-11-09T17:03:14;5.18;;;3.25;;
67554;SDS011;54385;53.516;49.456;2022-11-09T17:05:41;7.03;;;4.13;;
67554;SDS011;54385;53.516;49.456;2022-11-09T17:08:08;10.60;;;4.95;;
67554;SDS011;54385;53.516;49.456;2022-11-09T17:10:42;9.32;;;4.53;;
67554;SDS011;54385;53.516;49.456;2022-11-09T17:13:10;6.32;;;3.97;;
67554;SDS011;54385;53.516;49.456;2022-11-09T17:15:38;8.73;;;4.03;;
67554;SDS011;54385;53.516;49.456;2022-11-09T17:18:09;10.65;;;4.72;;
67554;SDS011;54385;53.516;49.456;2022-11-09T17:20:46;6.97;;;4.43;;
67554;SDS011;54385;53.516;49.456;2022-11-09T17:23:14;9.88;;;4.50;;
67554;SDS011;54385;53.516;49.456;2022-11-09T17:26:04;6.53;;;3.65;;
67554;SDS011;54385;53.516;49.456;2022-11-09T17:28:30;10.00;;;4.45;;